Colborne, Canada
Current Conditions -  °F | °C
As of 1:00 PM on Wednesday 28 Jan 2015 (Local Time) from CYTR Reporting Station
Few Clouds Few Clouds  
Wind Chill: 18°   Ceiling: Unl
Heat Index: 25°   Visibility: 15mi
Dew Point: -8°   Wind: 6mph
Humidity: 24%   Direction: 280°W
Pressure: 30.26"   Gusts: NA
Location:  44.02°N, 77.88°W
Report Text: CYTR 281800Z 28005KT 15SM FEW250 M04/M22 A3026 RMK CI1 SLP254
Loading
Personal Weather Stations






























Interactive Weather Map New forecast layout! Learn more

10-Day Weather Forecast

Advertisements
Track Severe Weather on mobile